sensor_id;sensor_type;location;lat;lon;timestamp;temperature;humidity
33007;DHT22;19361;51.598;7.650;2023-09-19T00:03:49;20.30;65.70
33007;DHT22;19361;51.598;7.650;2023-09-19T00:08:49;20.30;65.60
33007;DHT22;19361;51.598;7.650;2023-09-19T00:13:50;20.30;65.20
33007;DHT22;19361;51.598;7.650;2023-09-19T00:18:51;20.20;65.00
33007;DHT22;19361;51.598;7.650;2023-09-19T00:23:52;20.20;64.70
33007;DHT22;19361;51.598;7.650;2023-09-19T00:28:54;20.10;64.40
33007;DHT22;19361;51.598;7.650;2023-09-19T00:33:54;20.00;64.00
33007;DHT22;19361;51.598;7.650;2023-09-19T00:38:57;19.90;63.90
33007;DHT22;19361;51.598;7.650;2023-09-19T00:43:58;19.90;63.70
33007;DHT22;19361;51.598;7.650;2023-09-19T00:49:00;19.80;63.60
33007;DHT22;19361;51.598;7.650;2023-09-19T00:54:02;19.70;63.40
33007;DHT22;19361;51.598;7.650;2023-09-19T00:59:04;19.70;63.60
33007;DHT22;19361;51.598;7.650;2023-09-19T01:04:05;19.60;63.90
33007;DHT22;19361;51.598;7.650;2023-09-19T01:09:06;19.60;64.00
33007;DHT22;19361;51.598;7.650;2023-09-19T01:14:25;19.60;64.00
33007;DHT22;19361;51.598;7.650;2023-09-19T01:20:11;19.50;63.90
33007;DHT22;19361;51.598;7.650;2023-09-19T01:30:57;19.40;63.70
33007;DHT22;19361;51.598;7.650;2023-09-19T01:36:00;19.30;63.50
33007;DHT22;19361;51.598;7.650;2023-09-19T01:41:05;19.30;63.60
33007;DHT22;19361;51.598;7.650;2023-09-19T01:46:25;19.20;63.60
33007;DHT22;19361;51.598;7.650;2023-09-19T01:51:56;19.20;63.60
33007;DHT22;19361;51.598;7.650;2023-09-19T01:57:12;19.20;63.40
33007;DHT22;19361;51.598;7.650;2023-09-19T02:02:17;19.20;63.30
33007;DHT22;19361;51.598;7.650;2023-09-19T02:07:18;19.10;63.10
33007;DHT22;19361;51.598;7.650;2023-09-19T02:12:18;19.10;63.10
33007;DHT22;19361;51.598;7.650;2023-09-19T02:17:19;19.00;63.20
33007;DHT22;19361;51.598;7.650;2023-09-19T02:22:20;19.00;63.20
33007;DHT22;19361;51.598;7.650;2023-09-19T02:27:23;18.90;63.20
33007;DHT22;19361;51.598;7.650;2023-09-19T02:32:23;18.80;63.30
33007;DHT22;19361;51.598;7.650;2023-09-19T02:37:24;18.80;63.30
33007;DHT22;19361;51.598;7.650;2023-09-19T02:42:25;18.80;63.20
33007;DHT22;19361;51.598;7.650;2023-09-19T02:47:26;18.70;63.10
33007;DHT22;19361;51.598;7.650;2023-09-19T02:52:28;18.70;63.00
33007;DHT22;19361;51.598;7.650;2023-09-19T02:57:29;18.60;62.90
33007;DHT22;19361;51.598;7.650;2023-09-19T03:02:31;18.60;62.80
33007;DHT22;19361;51.598;7.650;2023-09-19T03:07:35;18.50;62.70
33007;DHT22;19361;51.598;7.650;2023-09-19T03:12:37;18.50;62.80
33007;DHT22;19361;51.598;7.650;2023-09-19T03:17:43;18.50;62.60
33007;DHT22;19361;51.598;7.650;2023-09-19T03:22:45;18.40;62.80
33007;DHT22;19361;51.598;7.650;2023-09-19T03:27:46;18.40;62.80
33007;DHT22;19361;51.598;7.650;2023-09-19T03:32:48;18.40;62.80
33007;DHT22;19361;51.598;7.650;2023-09-19T03:37:50;18.40;62.90
33007;DHT22;19361;51.598;7.650;2023-09-19T03:42:52;18.30;62.70
33007;DHT22;19361;51.598;7.650;2023-09-19T03:47:53;18.30;62.70
33007;DHT22;19361;51.598;7.650;2023-09-19T03:52:56;18.30;62.60
33007;DHT22;19361;51.598;7.650;2023-09-19T03:57:57;18.30;62.30
33007;DHT22;19361;51.598;7.650;2023-09-19T04:02:58;18.30;61.90
33007;DHT22;19361;51.598;7.650;2023-09-19T04:07:59;18.30;61.80
33007;DHT22;19361;51.598;7.650;2023-09-19T04:12:59;18.20;61.50
33007;DHT22;19361;51.598;7.650;2023-09-19T04:18:00;18.20;61.20
33007;DHT22;19361;51.598;7.650;2023-09-19T04:23:01;18.10;61.00
33007;DHT22;19361;51.598;7.650;2023-09-19T04:28:01;18.10;61.00
33007;DHT22;19361;51.598;7.650;2023-09-19T04:33:04;18.10;61.00
33007;DHT22;19361;51.598;7.650;2023-09-19T04:38:05;18.00;61.00
33007;DHT22;19361;51.598;7.650;2023-09-19T04:43:07;18.00;61.10
33007;DHT22;19361;51.598;7.650;2023-09-19T04:48:08;17.90;61.10
33007;DHT22;19361;51.598;7.650;2023-09-19T04:53:11;17.90;61.10
33007;DHT22;19361;51.598;7.650;2023-09-19T04:58:13;17.80;61.10
33007;DHT22;19361;51.598;7.650;2023-09-19T05:03:13;17.80;61.10
33007;DHT22;19361;51.598;7.650;2023-09-19T05:08:14;17.80;61.20
33007;DHT22;19361;51.598;7.650;2023-09-19T05:13:15;17.80;61.20
33007;DHT22;19361;51.598;7.650;2023-09-19T05:18:16;17.80;61.80
33007;DHT22;19361;51.598;7.650;2023-09-19T05:23:16;17.80;61.40
33007;DHT22;19361;51.598;7.650;2023-09-19T05:28:17;17.80;61.50
33007;DHT22;19361;51.598;7.650;2023-09-19T05:33:18;17.80;61.50
33007;DHT22;19361;51.598;7.650;2023-09-19T05:38:19;17.80;61.60
33007;DHT22;19361;51.598;7.650;2023-09-19T05:43:20;17.80;61.80
33007;DHT22;19361;51.598;7.650;2023-09-19T05:48:22;17.80;62.40
33007;DHT22;19361;51.598;7.650;2023-09-19T05:53:22;17.80;62.10
33007;DHT22;19361;51.598;7.650;2023-09-19T05:58:23;17.80;62.10
33007;DHT22;19361;51.598;7.650;2023-09-19T06:03:24;17.80;62.30
33007;DHT22;19361;51.598;7.650;2023-09-19T06:08:25;17.90;62.20
33007;DHT22;19361;51.598;7.650;2023-09-19T06:13:29;17.90;62.30
33007;DHT22;19361;51.598;7.650;2023-09-19T06:18:30;17.90;62.30
33007;DHT22;19361;51.598;7.650;2023-09-19T06:23:34;18.00;62.20
33007;DHT22;19361;51.598;7.650;2023-09-19T06:28:35;18.00;62.10
33007;DHT22;19361;51.598;7.650;2023-09-19T06:33:37;18.10;62.30
33007;DHT22;19361;51.598;7.650;2023-09-19T06:38:41;18.10;62.20
33007;DHT22;19361;51.598;7.650;2023-09-19T06:43:41;18.20;62.00
33007;DHT22;19361;51.598;7.650;2023-09-19T06:48:42;18.20;61.80
33007;DHT22;19361;51.598;7.650;2023-09-19T06:53:44;18.30;61.80
33007;DHT22;19361;51.598;7.650;2023-09-19T06:58:45;18.40;61.80
33007;DHT22;19361;51.598;7.650;2023-09-19T07:03:46;18.40;61.80
33007;DHT22;19361;51.598;7.650;2023-09-19T07:08:46;18.50;61.40
33007;DHT22;19361;51.598;7.650;2023-09-19T07:13:47;18.60;61.50
33007;DHT22;19361;51.598;7.650;2023-09-19T07:18:48;18.70;61.30
33007;DHT22;19361;51.598;7.650;2023-09-19T07:23:49;18.70;61.30
33007;DHT22;19361;51.598;7.650;2023-09-19T07:28:50;18.80;61.20
33007;DHT22;19361;51.598;7.650;2023-09-19T07:33:50;18.90;61.00
33007;DHT22;19361;51.598;7.650;2023-09-19T07:38:51;18.90;60.80
33007;DHT22;19361;51.598;7.650;2023-09-19T07:43:53;19.00;60.80
33007;DHT22;19361;51.598;7.650;2023-09-19T07:48:53;19.10;60.80
33007;DHT22;19361;51.598;7.650;2023-09-19T07:53:54;19.20;60.70
33007;DHT22;19361;51.598;7.650;2023-09-19T07:58:55;19.30;60.80
33007;DHT22;19361;51.598;7.650;2023-09-19T08:03:58;19.30;60.40
33007;DHT22;19361;51.598;7.650;2023-09-19T08:08:59;19.50;60.50
33007;DHT22;19361;51.598;7.650;2023-09-19T08:14:01;19.50;60.40
33007;DHT22;19361;51.598;7.650;2023-09-19T08:19:01;19.60;59.90
33007;DHT22;19361;51.598;7.650;2023-09-19T08:24:02;19.70;60.30
33007;DHT22;19361;51.598;7.650;2023-09-19T08:29:06;19.80;59.80
33007;DHT22;19361;51.598;7.650;2023-09-19T08:34:07;19.80;59.80
33007;DHT22;19361;51.598;7.650;2023-09-19T08:39:08;19.90;59.50
33007;DHT22;19361;51.598;7.650;2023-09-19T08:44:09;20.00;58.70
33007;DHT22;19361;51.598;7.650;2023-09-19T08:49:23;20.10;58.90
33007;DHT22;19361;51.598;7.650;2023-09-19T08:54:32;20.10;58.30
33007;DHT22;19361;51.598;7.650;2023-09-19T08:59:38;20.20;57.90
33007;DHT22;19361;51.598;7.650;2023-09-19T09:04:44;20.30;58.30
33007;DHT22;19361;51.598;7.650;2023-09-19T09:09:45;20.30;58.50
33007;DHT22;19361;51.598;7.650;2023-09-19T09:14:47;20.40;57.40
33007;DHT22;19361;51.598;7.650;2023-09-19T09:19:52;20.40;57.90
33007;DHT22;19361;51.598;7.650;2023-09-19T09:24:54;20.60;57.70
33007;DHT22;19361;51.598;7.650;2023-09-19T09:29:58;20.60;57.10
33007;DHT22;19361;51.598;7.650;2023-09-19T09:35:01;20.70;57.60
33007;DHT22;19361;51.598;7.650;2023-09-19T09:40:05;20.80;57.40
33007;DHT22;19361;51.598;7.650;2023-09-19T09:45:28;21.00;56.80
33007;DHT22;19361;51.598;7.650;2023-09-19T09:50:37;21.10;55.70
33007;DHT22;19361;51.598;7.650;2023-09-19T09:56:01;21.20;55.30
33007;DHT22;19361;51.598;7.650;2023-09-19T10:01:09;21.30;54.50
33007;DHT22;19361;51.598;7.650;2023-09-19T10:06:12;21.40;54.60
33007;DHT22;19361;51.598;7.650;2023-09-19T10:11:25;21.50;54.30
33007;DHT22;19361;51.598;7.650;2023-09-19T10:16:31;21.60;53.40
33007;DHT22;19361;51.598;7.650;2023-09-19T10:21:34;21.70;53.70
33007;DHT22;19361;51.598;7.650;2023-09-19T10:26:37;21.80;53.10
33007;DHT22;19361;51.598;7.650;2023-09-19T10:31:40;21.90;52.60
33007;DHT22;19361;51.598;7.650;2023-09-19T10:36:48;22.00;52.70
33007;DHT22;19361;51.598;7.650;2023-09-19T10:41:53;22.10;51.30
33007;DHT22;19361;51.598;7.650;2023-09-19T10:46:59;22.20;51.70
33007;DHT22;19361;51.598;7.650;2023-09-19T10:52:01;22.20;51.90
33007;DHT22;19361;51.598;7.650;2023-09-19T10:57:03;22.40;51.60
33007;DHT22;19361;51.598;7.650;2023-09-19T11:02:18;22.50;51.10
33007;DHT22;19361;51.598;7.650;2023-09-19T11:07:19;22.70;50.00
33007;DHT22;19361;51.598;7.650;2023-09-19T11:43:51;23.10;47.10
33007;DHT22;19361;51.598;7.650;2023-09-19T11:48:52;23.00;47.30
33007;DHT22;19361;51.598;7.650;2023-09-19T11:53:55;23.10;46.80
33007;DHT22;19361;51.598;7.650;2023-09-19T11:59:03;23.10;46.90
33007;DHT22;19361;51.598;7.650;2023-09-19T12:04:04;23.10;46.60
33007;DHT22;19361;51.598;7.650;2023-09-19T12:09:05;23.10;47.20
33007;DHT22;19361;51.598;7.650;2023-09-19T12:14:11;23.10;47.70
33007;DHT22;19361;51.598;7.650;2023-09-19T12:19:19;23.20;47.10
33007;DHT22;19361;51.598;7.650;2023-09-19T12:24:25;23.30;46.20
33007;DHT22;19361;51.598;7.650;2023-09-19T12:29:27;23.30;46.00
33007;DHT22;19361;51.598;7.650;2023-09-19T12:34:29;23.40;46.10
33007;DHT22;19361;51.598;7.650;2023-09-19T12:39:34;23.40;46.50
33007;DHT22;19361;51.598;7.650;2023-09-19T12:44:44;23.40;46.50
33007;DHT22;19361;51.598;7.650;2023-09-19T12:50:09;23.40;45.80
33007;DHT22;19361;51.598;7.650;2023-09-19T12:55:27;23.40;45.70
33007;DHT22;19361;51.598;7.650;2023-09-19T13:00:37;23.40;46.00
33007;DHT22;19361;51.598;7.650;2023-09-19T13:11:09;23.60;45.10
33007;DHT22;19361;51.598;7.650;2023-09-19T13:16:13;23.70;44.90
33007;DHT22;19361;51.598;7.650;2023-09-19T13:21:33;23.80;44.70
33007;DHT22;19361;51.598;7.650;2023-09-19T13:26:49;23.80;43.00
33007;DHT22;19361;51.598;7.650;2023-09-19T13:31:52;23.90;45.00
33007;DHT22;19361;51.598;7.650;2023-09-19T13:36:56;24.00;43.30
33007;DHT22;19361;51.598;7.650;2023-09-19T13:41:59;24.10;43.50
33007;DHT22;19361;51.598;7.650;2023-09-19T13:46:59;24.10;42.00
33007;DHT22;19361;51.598;7.650;2023-09-19T13:52:02;24.10;41.70
33007;DHT22;19361;51.598;7.650;2023-09-19T13:57:05;24.10;41.40
33007;DHT22;19361;51.598;7.650;2023-09-19T14:02:06;24.10;41.80
33007;DHT22;19361;51.598;7.650;2023-09-19T14:07:07;24.10;41.30
33007;DHT22;19361;51.598;7.650;2023-09-19T14:12:08;24.10;41.70
33007;DHT22;19361;51.598;7.650;2023-09-19T14:17:09;24.10;41.70
33007;DHT22;19361;51.598;7.650;2023-09-19T14:22:10;24.10;41.50
33007;DHT22;19361;51.598;7.650;2023-09-19T14:27:11;24.10;42.10
33007;DHT22;19361;51.598;7.650;2023-09-19T14:32:11;24.10;41.40
33007;DHT22;19361;51.598;7.650;2023-09-19T14:37:13;24.00;42.10
33007;DHT22;19361;51.598;7.650;2023-09-19T14:42:14;23.90;42.70
33007;DHT22;19361;51.598;7.650;2023-09-19T14:47:17;23.80;42.20
33007;DHT22;19361;51.598;7.650;2023-09-19T14:52:19;23.90;42.40
33007;DHT22;19361;51.598;7.650;2023-09-19T14:57:20;23.80;42.60
33007;DHT22;19361;51.598;7.650;2023-09-19T15:02:20;23.70;42.80
33007;DHT22;19361;51.598;7.650;2023-09-19T15:07:21;23.70;43.10
33007;DHT22;19361;51.598;7.650;2023-09-19T15:12:22;23.60;43.20
33007;DHT22;19361;51.598;7.650;2023-09-19T15:17:22;23.60;43.30
33007;DHT22;19361;51.598;7.650;2023-09-19T15:22:25;23.50;43.70
33007;DHT22;19361;51.598;7.650;2023-09-19T15:27:27;23.50;43.90
33007;DHT22;19361;51.598;7.650;2023-09-19T15:32:31;23.40;44.10
33007;DHT22;19361;51.598;7.650;2023-09-19T15:37:32;23.30;44.10
33007;DHT22;19361;51.598;7.650;2023-09-19T15:42:33;23.30;45.00
33007;DHT22;19361;51.598;7.650;2023-09-19T15:47:33;23.30;44.80
33007;DHT22;19361;51.598;7.650;2023-09-19T15:52:34;23.30;44.70
33007;DHT22;19361;51.598;7.650;2023-09-19T15:57:39;23.30;44.80
33007;DHT22;19361;51.598;7.650;2023-09-19T16:02:39;23.20;45.30
33007;DHT22;19361;51.598;7.650;2023-09-19T16:07:40;23.20;45.40
33007;DHT22;19361;51.598;7.650;2023-09-19T16:12:41;23.10;45.90
33007;DHT22;19361;51.598;7.650;2023-09-19T16:17:42;23.00;45.50
33007;DHT22;19361;51.598;7.650;2023-09-19T16:22:45;23.00;45.60
33007;DHT22;19361;51.598;7.650;2023-09-19T16:27:46;23.00;45.80
33007;DHT22;19361;51.598;7.650;2023-09-19T16:32:47;22.90;45.80
33007;DHT22;19361;51.598;7.650;2023-09-19T16:37:48;22.90;45.80
33007;DHT22;19361;51.598;7.650;2023-09-19T16:42:49;22.70;45.80
33007;DHT22;19361;51.598;7.650;2023-09-19T16:47:49;22.60;45.70
33007;DHT22;19361;51.598;7.650;2023-09-19T16:52:50;22.60;46.10
33007;DHT22;19361;51.598;7.650;2023-09-19T16:57:51;22.50;46.40
33007;DHT22;19361;51.598;7.650;2023-09-19T17:02:52;22.50;46.50
33007;DHT22;19361;51.598;7.650;2023-09-19T17:07:53;22.40;46.70
33007;DHT22;19361;51.598;7.650;2023-09-19T17:12:53;22.40;46.80
33007;DHT22;19361;51.598;7.650;2023-09-19T17:17:57;22.30;46.90
33007;DHT22;19361;51.598;7.650;2023-09-19T17:22:58;22.30;47.00
33007;DHT22;19361;51.598;7.650;2023-09-19T17:27:59;22.20;46.80
33007;DHT22;19361;51.598;7.650;2023-09-19T17:33:00;22.20;46.90
33007;DHT22;19361;51.598;7.650;2023-09-19T17:38:00;22.10;47.10
33007;DHT22;19361;51.598;7.650;2023-09-19T17:43:03;22.10;47.40
33007;DHT22;19361;51.598;7.650;2023-09-19T17:48:04;22.10;47.30
33007;DHT22;19361;51.598;7.650;2023-09-19T17:53:06;22.00;47.60
33007;DHT22;19361;51.598;7.650;2023-09-19T17:58:08;22.00;47.60
33007;DHT22;19361;51.598;7.650;2023-09-19T18:03:09;21.90;47.70
33007;DHT22;19361;51.598;7.650;2023-09-19T18:08:10;21.90;48.00
33007;DHT22;19361;51.598;7.650;2023-09-19T18:13:13;21.90;48.10
33007;DHT22;19361;51.598;7.650;2023-09-19T18:18:13;21.90;48.10
33007;DHT22;19361;51.598;7.650;2023-09-19T18:23:15;21.90;48.10
33007;DHT22;19361;51.598;7.650;2023-09-19T18:28:16;21.90;48.80
33007;DHT22;19361;51.598;7.650;2023-09-19T18:33:17;21.90;48.20
33007;DHT22;19361;51.598;7.650;2023-09-19T18:38:21;21.90;48.30
33007;DHT22;19361;51.598;7.650;2023-09-19T18:43:22;21.90;48.40
33007;DHT22;19361;51.598;7.650;2023-09-19T18:48:22;21.90;48.40
33007;DHT22;19361;51.598;7.650;2023-09-19T18:53:23;21.90;48.40
33007;DHT22;19361;51.598;7.650;2023-09-19T18:58:26;21.90;48.40
33007;DHT22;19361;51.598;7.650;2023-09-19T19:03:27;21.90;48.50
33007;DHT22;19361;51.598;7.650;2023-09-19T19:08:28;21.80;48.40
33007;DHT22;19361;51.598;7.650;2023-09-19T19:13:29;21.80;48.30
33007;DHT22;19361;51.598;7.650;2023-09-19T19:18:30;21.80;48.40
33007;DHT22;19361;51.598;7.650;2023-09-19T19:23:31;21.80;48.40
33007;DHT22;19361;51.598;7.650;2023-09-19T19:28:32;21.80;48.50
33007;DHT22;19361;51.598;7.650;2023-09-19T19:33:35;21.80;48.60
33007;DHT22;19361;51.598;7.650;2023-09-19T19:38:39;21.80;48.60
33007;DHT22;19361;51.598;7.650;2023-09-19T19:43:40;21.70;48.50
33007;DHT22;19361;51.598;7.650;2023-09-19T19:48:47;21.70;48.60
33007;DHT22;19361;51.598;7.650;2023-09-19T19:53:49;21.60;48.80
33007;DHT22;19361;51.598;7.650;2023-09-19T19:58:49;21.60;48.80
33007;DHT22;19361;51.598;7.650;2023-09-19T20:03:50;21.60;48.90
33007;DHT22;19361;51.598;7.650;2023-09-19T20:08:51;21.60;49.10
33007;DHT22;19361;51.598;7.650;2023-09-19T20:13:52;21.60;49.10
33007;DHT22;19361;51.598;7.650;2023-09-19T20:18:53;21.60;49.10
33007;DHT22;19361;51.598;7.650;2023-09-19T20:24:02;21.60;49.20
33007;DHT22;19361;51.598;7.650;2023-09-19T20:29:06;21.60;49.20
33007;DHT22;19361;51.598;7.650;2023-09-19T20:34:08;21.60;49.30
33007;DHT22;19361;51.598;7.650;2023-09-19T20:39:09;21.60;49.40
33007;DHT22;19361;51.598;7.650;2023-09-19T20:44:10;21.50;49.50
33007;DHT22;19361;51.598;7.650;2023-09-19T20:49:11;21.50;49.60
33007;DHT22;19361;51.598;7.650;2023-09-19T20:54:11;21.50;49.80
33007;DHT22;19361;51.598;7.650;2023-09-19T20:59:16;21.50;50.00
33007;DHT22;19361;51.598;7.650;2023-09-19T21:04:17;21.50;50.20
33007;DHT22;19361;51.598;7.650;2023-09-19T21:09:18;21.50;50.90
33007;DHT22;19361;51.598;7.650;2023-09-19T21:14:19;21.40;50.40
33007;DHT22;19361;51.598;7.650;2023-09-19T21:19:19;21.40;50.50
33007;DHT22;19361;51.598;7.650;2023-09-19T21:24:22;21.40;50.60
33007;DHT22;19361;51.598;7.650;2023-09-19T21:29:26;21.40;50.70
33007;DHT22;19361;51.598;7.650;2023-09-19T21:34:27;21.40;50.90
33007;DHT22;19361;51.598;7.650;2023-09-19T21:39:28;21.40;51.00
33007;DHT22;19361;51.598;7.650;2023-09-19T21:44:28;21.40;51.00
33007;DHT22;19361;51.598;7.650;2023-09-19T21:49:29;21.30;51.20
33007;DHT22;19361;51.598;7.650;2023-09-19T21:54:30;21.30;51.20
33007;DHT22;19361;51.598;7.650;2023-09-19T21:59:31;21.30;51.40
33007;DHT22;19361;51.598;7.650;2023-09-19T22:04:32;21.30;51.40
33007;DHT22;19361;51.598;7.650;2023-09-19T22:09:33;21.40;51.60
33007;DHT22;19361;51.598;7.650;2023-09-19T22:14:33;21.30;51.60
33007;DHT22;19361;51.598;7.650;2023-09-19T22:19:35;21.30;51.70
33007;DHT22;19361;51.598;7.650;2023-09-19T22:24:39;21.30;51.80
33007;DHT22;19361;51.598;7.650;2023-09-19T22:29:40;21.30;51.90
33007;DHT22;19361;51.598;7.650;2023-09-19T22:34:43;21.30;51.90
33007;DHT22;19361;51.598;7.650;2023-09-19T22:39:44;21.30;52.00
33007;DHT22;19361;51.598;7.650;2023-09-19T22:44:45;21.30;52.10
33007;DHT22;19361;51.598;7.650;2023-09-19T22:49:46;21.30;52.10
33007;DHT22;19361;51.598;7.650;2023-09-19T22:54:46;21.20;52.30
33007;DHT22;19361;51.598;7.650;2023-09-19T22:59:48;21.10;52.30
33007;DHT22;19361;51.598;7.650;2023-09-19T23:04:52;21.00;52.50
33007;DHT22;19361;51.598;7.650;2023-09-19T23:09:53;21.00;52.60
33007;DHT22;19361;51.598;7.650;2023-09-19T23:14:54;20.90;52.90
33007;DHT22;19361;51.598;7.650;2023-09-19T23:19:55;20.90;53.10
33007;DHT22;19361;51.598;7.650;2023-09-19T23:24:56;20.90;53.40
33007;DHT22;19361;51.598;7.650;2023-09-19T23:30:12;20.80;53.60
33007;DHT22;19361;51.598;7.650;2023-09-19T23:35:15;20.80;53.60
33007;DHT22;19361;51.598;7.650;2023-09-19T23:40:21;20.80;53.90
33007;DHT22;19361;51.598;7.650;2023-09-19T23:45:22;20.80;53.90
33007;DHT22;19361;51.598;7.650;2023-09-19T23:50:26;20.90;54.30
33007;DHT22;19361;51.598;7.650;2023-09-19T23:55:29;20.90;54.30
